Time;durP1;ratioP1;P1;durP2;ratioP2;P2;SDS_P1;SDS_P2;PMS_P1;PMS_P2;Temp;Humidity;BMP_temperature;BMP_pressure;BME280_temperature;BME280_humidity;BME280_pressure;Samples;Min_cycle;Max_cycle;Signal;HPM_P1;HPM_P2
2023/05/20 00:02:00;;;;;;;1999.90;999.90;;;;;;;13.37;100.00;95082.09;5066664;28;20203;-58
2023/05/20 00:04:26;;;;;;;1999.90;999.90;;;;;;;13.41;100.00;95077.28;5067337;28;20206;-58
2023/05/20 00:06:51;;;;;;;1999.90;999.90;;;;;;;13.37;100.00;95060.16;5066900;28;20221;-58
2023/05/20 00:09:17;;;;;;;1999.90;999.90;;;;;;;13.33;100.00;95056.69;5067213;28;20200;-59
2023/05/20 00:11:42;;;;;;;1999.90;999.90;;;;;;;13.36;100.00;95053.09;5067229;28;20193;-58
2023/05/20 00:14:08;;;;;;;1999.90;999.90;;;;;;;13.34;100.00;95041.78;5049904;28;20197;-58
2023/05/20 00:16:33;;;;;;;1999.90;999.90;;;;;;;13.33;100.00;95029.25;5066381;28;20192;-58
2023/05/20 00:18:59;;;;;;;1999.90;999.90;;;;;;;13.24;100.00;95024.41;5049757;28;20261;-58
2023/05/20 00:21:24;;;;;;;1999.90;999.90;;;;;;;13.25;100.00;95025.16;5066911;28;20240;-58
2023/05/20 00:23:50;;;;;;;1999.90;999.90;;;;;;;13.32;100.00;95021.50;5066481;28;20186;-58
2023/05/20 00:26:16;;;;;;;1999.90;999.90;;;;;;;13.30;100.00;95010.94;5049836;28;20189;-58
2023/05/20 00:28:41;;;;;;;1999.90;999.90;;;;;;;13.11;100.00;95009.81;5066520;28;20196;-58
2023/05/20 00:31:06;;;;;;;1999.90;999.90;;;;;;;13.18;100.00;95006.13;5066182;28;20186;-58
2023/05/20 00:33:32;;;;;;;1999.90;999.90;;;;;;;13.12;100.00;94988.69;5049916;28;20292;-58
2023/05/20 00:35:57;;;;;;;1999.90;999.90;;;;;;;13.09;100.00;94978.56;5066913;28;20185;-58
2023/05/20 00:38:22;;;;;;;1999.90;999.90;;;;;;;13.20;100.00;94962.63;5066038;28;20205;-58
2023/05/20 00:40:48;;;;;;;1999.90;999.90;;;;;;;13.15;100.00;94955.66;5066699;28;20244;-58
2023/05/20 00:43:13;;;;;;;1999.90;999.90;;;;;;;13.15;100.00;94946.69;5066156;28;20186;-58
2023/05/20 00:45:39;;;;;;;1999.90;999.90;;;;;;;13.00;100.00;94937.25;5065934;28;20193;-58
2023/05/20 00:48:05;;;;;;;1999.90;999.90;;;;;;;12.99;100.00;94913.78;5049813;28;20186;-58
2023/05/20 00:50:31;;;;;;;1999.90;999.90;;;;;;;13.05;100.00;94901.13;5066473;28;20239;-57
2023/05/20 00:52:57;;;;;;;1999.90;999.90;;;;;;;13.01;100.00;94864.81;5065883;28;20186;-58
2023/05/20 00:55:23;;;;;;;1999.90;999.90;;;;;;;13.03;100.00;94849.47;5049720;28;20240;-58
2023/05/20 00:57:50;;;;;;;1999.90;999.90;;;;;;;13.09;100.00;94836.00;5065899;28;20205;-58
2023/05/20 01:00:15;;;;;;;1999.90;999.90;;;;;;;13.13;100.00;94837.47;5065751;28;20217;-58
2023/05/20 01:02:40;;;;;;;1999.90;999.90;;;;;;;13.09;100.00;94836.00;5048927;28;20208;-59
2023/05/20 01:05:06;;;;;;;1999.90;999.90;;;;;;;12.97;100.00;94812.03;5066293;28;20162;-58
2023/05/20 01:07:32;;;;;;;1999.90;999.90;;;;;;;12.94;100.00;94797.19;5066352;28;20192;-58
2023/05/20 01:09:58;;;;;;;1999.90;999.90;;;;;;;12.92;100.00;94765.94;5066001;28;20216;-58
2023/05/20 01:12:33;;;;;;;1999.90;999.90;;;;;;;12.93;100.00;94740.84;5049165;28;20258;-58
2023/05/20 01:15:07;;;;;;;1999.90;999.90;;;;;;;12.95;100.00;94715.75;5065605;28;20270;-59
2023/05/20 01:17:37;;;;;;;1999.90;999.90;;;;;;;12.95;100.00;94699.31;5065536;28;20219;-59
2023/05/20 01:20:04;;;;;;;1999.90;999.90;;;;;;;12.93;100.00;94679.81;5065240;28;20196;-57
2023/05/20 01:22:30;;;;;;;1999.90;999.90;;;;;;;12.89;100.00;94651.72;5065822;28;20201;-57
2023/05/20 01:24:56;;;;;;;1999.90;999.90;;;;;;;12.92;100.00;94596.81;5065464;28;20186;-57
2023/05/20 01:27:22;;;;;;;1999.90;999.90;;;;;;;12.90;100.00;94565.56;5065735;28;20228;-59
2023/05/20 01:29:49;;;;;;;1999.90;999.90;;;;;;;13.00;100.00;94556.28;5065624;28;20209;-60
2023/05/20 01:32:21;;;;;;;1999.90;999.90;;;;;;;13.04;100.00;94554.22;5065382;28;20193;-59
2023/05/20 01:34:51;;;;;;;1999.90;999.90;;;;;;;13.06;100.00;94629.31;5065332;28;20202;-59
2023/05/20 01:37:21;;;;;;;1999.90;999.90;;;;;;;13.03;100.00;94623.91;5065156;28;20205;-57
2023/05/20 01:39:49;;;;;;;1999.90;999.90;;;;;;;12.98;100.00;94632.69;5064285;28;20202;-57
2023/05/20 01:42:15;;;;;;;1999.90;999.90;;;;;;;13.00;100.00;94631.06;5065070;28;20202;-57
2023/05/20 01:44:41;;;;;;;1999.90;999.90;;;;;;;13.03;100.00;94624.69;5065289;28;20197;-57
2023/05/20 01:47:06;;;;;;;1999.90;999.90;;;;;;;13.02;100.00;94628.66;5048268;28;20269;-57
2023/05/20 01:49:32;;;;;;;1999.90;999.90;;;;;;;12.90;100.00;94615.66;5065445;28;20208;-57
2023/05/20 01:51:57;;;;;;;1999.90;999.90;;;;;;;12.96;100.00;94608.44;5064783;28;20218;-57
2023/05/20 01:54:23;;;;;;;1999.90;999.90;;;;;;;12.81;100.00;94601.06;5048224;28;20205;-57
2023/05/20 01:56:49;;;;;;;1999.90;999.90;;;;;;;12.79;100.00;94578.84;5048339;28;20258;-58
2023/05/20 01:59:14;;;;;;;1999.90;999.90;;;;;;;12.79;100.00;94565.13;5047934;28;20221;-57
2023/05/20 02:01:40;;;;;;;1999.90;999.90;;;;;;;12.72;100.00;94540.69;5047969;28;20248;-57
2023/05/20 02:04:05;;;;;;;1999.90;999.90;;;;;;;12.81;100.00;94516.13;5048208;28;20213;-57
2023/05/20 02:06:30;;;;;;;1999.90;999.90;;;;;;;12.82;100.00;94510.22;5064726;28;20205;-57
2023/05/20 02:08:56;;;;;;;1999.90;999.90;;;;;;;12.87;100.00;94492.47;5064531;28;20209;-57
2023/05/20 02:11:21;;;;;;;1999.90;999.90;;;;;;;12.75;100.00;94493.25;5064457;28;20198;-57
2023/05/20 02:13:46;;;;;;;1999.90;999.90;;;;;;;12.76;100.00;94483.81;5047566;28;20205;-56
2023/05/20 02:16:12;;;;;;;1999.90;999.90;;;;;;;12.80;100.00;94462.53;5064431;28;20272;-57
2023/05/20 02:18:37;;;;;;;1999.90;999.90;;;;;;;12.80;100.00;94451.59;5064351;28;20218;-57
2023/05/20 02:21:04;;;;;;;1999.90;999.90;;;;;;;12.76;100.00;94439.97;5064042;28;20205;-57
2023/05/20 02:23:32;;;;;;;1999.90;999.90;;;;;;;12.64;100.00;94421.59;5064294;28;20265;-57
2023/05/20 02:25:58;;;;;;;1999.90;999.90;;;;;;;12.70;100.00;94408.84;5064032;28;20197;-58
2023/05/20 02:28:23;;;;;;;1999.90;999.90;;;;;;;12.73;100.00;94309.34;5064698;28;20185;-57
2023/05/20 02:30:51;;;;;;;1999.90;999.90;;;;;;;12.82;100.00;94306.72;5064574;28;20204;-58
2023/05/20 02:33:17;;;;;;;1999.90;999.90;;;;;;;12.83;100.00;94302.75;5064054;28;20315;-57
2023/05/20 02:35:43;;;;;;;1999.90;999.90;;;;;;;12.77;100.00;94297.06;5064512;28;20197;-57
2023/05/20 02:38:12;;;;;;;1999.90;999.90;;;;;;;12.78;100.00;94295.06;5063841;28;20212;-57
2023/05/20 02:40:38;;;;;;;1999.90;999.90;;;;;;;12.79;100.00;94302.09;5047562;28;20270;-57
2023/05/20 02:43:03;;;;;;;1999.90;999.90;;;;;;;12.74;100.00;94305.41;5063813;28;20194;-57
2023/05/20 02:45:29;;;;;;;1999.90;999.90;;;;;;;12.70;100.00;94300.06;5047371;28;20193;-57
2023/05/20 02:47:54;;;;;;;1999.90;999.90;;;;;;;12.73;100.00;94290.94;5063852;28;20198;-57
2023/05/20 02:50:19;;;;;;;1999.90;999.90;;;;;;;12.76;100.00;94287.31;5063265;28;20209;-57
2023/05/20 02:52:46;;;;;;;1999.90;999.90;;;;;;;12.77;100.00;94277.13;5063983;28;20201;-57
2023/05/20 02:55:11;;;;;;;1999.90;999.90;;;;;;;12.73;100.00;94271.78;5063696;28;20220;-57
2023/05/20 02:57:37;;;;;;;1999.90;999.90;;;;;;;12.72;100.00;94264.75;5064217;28;20181;-57
2023/05/20 03:00:05;;;;;;;1999.90;999.90;;;;;;;12.68;100.00;94272.31;5046908;28;20193;-57
2023/05/20 03:02:31;;;;;;;1999.90;999.90;;;;;;;12.79;100.00;94252.78;5047009;28;20213;-57
2023/05/20 03:04:57;;;;;;;1999.90;999.90;;;;;;;12.77;100.00;94250.50;5063765;28;20210;-57
2023/05/20 03:07:23;;;;;;;1999.90;999.90;;;;;;;12.73;100.00;94249.88;5046946;28;20204;-57
2023/05/20 03:09:48;;;;;;;1999.90;999.90;;;;;;;12.74;100.00;94245.91;5063936;28;20202;-56
2023/05/20 03:12:13;;;;;;;1999.90;999.90;;;;;;;12.74;100.00;94256.09;5063891;28;20201;-56
2023/05/20 03:14:39;;;;;;;1999.90;999.90;;;;;;;12.73;100.00;94252.59;5063998;28;20201;-56
2023/05/20 03:17:04;;;;;;;1999.90;999.90;;;;;;;12.66;100.00;94250.09;5063663;28;20268;-57
2023/05/20 03:19:30;;;;;;;1999.90;999.90;;;;;;;12.60;100.00;94231.91;5063666;28;20217;-57
2023/05/20 03:21:56;;;;;;;1999.90;999.90;;;;;;;12.53;100.00;94230.19;5063659;28;20252;-58
2023/05/20 03:24:22;;;;;;;1999.90;999.90;;;;;;;12.55;100.00;94227.03;5063755;28;20213;-57
2023/05/20 03:26:47;;;;;;;1999.90;999.90;;;;;;;12.54;100.00;94214.53;5046720;28;20208;-57
2023/05/20 03:29:13;;;;;;;1999.90;999.90;;;;;;;12.56;100.00;94190.19;5047354;28;20205;-57
2023/05/20 03:31:38;;;;;;;1999.90;999.90;;;;;;;12.63;100.00;94188.00;5063897;28;20208;-57
2023/05/20 03:34:03;;;;;;;1999.90;999.90;;;;;;;12.71;100.00;94194.75;5063934;28;20205;-57
2023/05/20 03:36:30;;;;;;;1999.90;999.90;;;;;;;12.74;100.00;94193.06;5063134;28;20235;-57
2023/05/20 03:38:55;;;;;;;1999.90;999.90;;;;;;;12.78;100.00;94191.75;5063371;28;20214;-58
2023/05/20 03:41:21;;;;;;;1999.90;999.90;;;;;;;12.81;100.00;94195.56;5046646;28;20204;-57
2023/05/20 03:43:46;;;;;;;1999.90;999.90;;;;;;;12.77;100.00;94205.88;5063217;28;20205;-57
2023/05/20 03:46:12;;;;;;;1999.90;999.90;;;;;;;12.67;100.00;94216.03;5046938;28;20327;-57
2023/05/20 03:48:37;;;;;;;1999.90;999.90;;;;;;;12.59;100.00;94213.97;5063395;28;20208;-57
2023/05/20 03:51:02;;;;;;;1999.90;999.90;;;;;;;12.70;100.00;94200.66;5047044;28;20216;-57
2023/05/20 03:53:28;;;;;;;1999.90;999.90;;;;;;;12.68;100.00;94203.09;5046911;28;20198;-57
2023/05/20 03:55:53;;;;;;;1999.90;999.90;;;;;;;12.63;100.00;94198.16;5046947;28;20201;-59
2023/05/20 03:58:19;;;;;;;1999.90;999.90;;;;;;;12.58;100.00;94179.59;5063082;28;20205;-58
2023/05/20 04:00:46;;;;;;;1999.90;999.90;;;;;;;12.60;100.00;94180.66;5063976;28;20235;-58
2023/05/20 04:03:11;;;;;;;1999.90;999.90;;;;;;;12.59;100.00;94183.84;5049954;28;20205;-58
2023/05/20 04:05:37;;;;;;;1999.90;999.90;;;;;;;12.67;100.00;94168.69;5050444;28;20205;-57
2023/05/20 04:08:03;;;;;;;1999.90;999.90;;;;;;;12.72;100.00;94163.38;5067191;28;20202;-58
2023/05/20 04:10:31;;;;;;;1999.90;999.90;;;;;;;12.77;100.00;94159.31;5066768;28;20231;-58
2023/05/20 04:12:56;;;;;;;1999.90;999.90;;;;;;;12.68;100.00;94160.00;5050047;28;20205;-58
2023/05/20 04:15:25;;;;;;;1999.90;999.90;;;;;;;12.70;100.00;94152.13;5050396;28;20223;-57
2023/05/20 04:17:51;;;;;;;1999.90;999.90;;;;;;;12.76;100.00;94152.31;5066519;28;20201;-57
2023/05/20 04:20:17;;;;;;;1999.90;999.90;;;;;;;12.75;100.00;94161.75;5066524;28;20202;-58
2023/05/20 04:22:42;;;;;;;1999.90;999.90;;;;;;;12.58;100.00;94174.09;5066698;28;20226;-57
2023/05/20 04:25:08;;;;;;;1999.90;999.90;;;;;;;12.55;100.00;94172.25;5050272;28;20201;-57
2023/05/20 04:27:34;;;;;;;1999.90;999.90;;;;;;;12.53;100.00;94174.69;5067117;28;20178;-58
2023/05/20 04:30:01;;;;;;;1999.90;999.90;;;;;;;12.64;100.00;94153.91;5049459;28;20197;-60
2023/05/20 04:32:26;;;;;;;1999.90;999.90;;;;;;;12.64;100.00;94148.44;5050017;28;20201;-59
2023/05/20 04:34:53;;;;;;;1999.90;999.90;;;;;;;12.62;100.00;94155.56;5049626;28;20232;-60
2023/05/20 04:37:18;;;;;;;1999.90;999.90;;;;;;;12.65;100.00;94154.69;5049824;28;20271;-60
2023/05/20 04:39:47;;;;;;;1999.90;999.90;;;;;;;12.53;100.00;94155.50;5049790;28;20232;-59
2023/05/20 04:42:12;;;;;;;1999.90;999.90;;;;;;;12.38;100.00;94138.03;5050195;28;20197;-57
2023/05/20 04:44:38;;;;;;;1999.90;999.90;;;;;;;12.37;100.00;94133.78;5049413;28;20196;-58
2023/05/20 04:47:06;;;;;;;1999.90;999.90;;;;;;;12.48;100.00;94117.72;5066346;28;20204;-57
2023/05/20 04:49:32;;;;;;;1999.90;999.90;;;;;;;12.64;100.00;94106.59;5049379;28;20197;-57
2023/05/20 04:51:58;;;;;;;1999.90;999.90;;;;;;;12.59;100.00;94113.41;5049198;28;20204;-58
2023/05/20 04:54:24;;;;;;;1999.90;999.90;;;;;;;12.46;100.00;94103.75;5066070;28;20239;-58
2023/05/20 04:56:49;;;;;;;1999.90;999.90;;;;;;;12.44;100.00;94089.72;5049129;28;20231;-57
2023/05/20 04:59:16;;;;;;;1999.90;999.90;;;;;;;12.63;100.00;94085.88;5049014;28;20229;-57
2023/05/20 05:01:41;;;;;;;1999.90;999.90;;;;;;;12.50;100.00;94080.47;5066402;28;20196;-57
2023/05/20 05:04:07;;;;;;;1999.90;999.90;;;;;;;12.47;100.00;94088.84;5048844;28;20280;-57
2023/05/20 05:06:32;;;;;;;1999.90;999.90;;;;;;;12.33;100.00;94084.63;5065630;28;20225;-57
2023/05/20 05:08:57;;;;;;;1999.90;999.90;;;;;;;12.46;100.00;94070.88;5065458;28;20197;-59
2023/05/20 05:11:23;;;;;;;1999.90;999.90;;;;;;;12.49;100.00;94069.97;5049409;28;20276;-59
2023/05/20 05:13:48;;;;;;;1999.90;999.90;;;;;;;12.48;100.00;94060.22;5048031;28;20198;-59
2023/05/20 05:16:14;;;;;;;1999.90;999.90;;;;;;;12.57;100.00;94049.34;5065290;28;20228;-60
2023/05/20 05:18:39;;;;;;;1999.90;999.90;;;;;;;12.57;100.00;94054.81;5065243;28;20210;-60
2023/05/20 05:21:05;;;;;;;1999.90;999.90;;;;;;;12.46;100.00;94043.50;5065248;28;20189;-58
2023/05/20 05:23:31;;;;;;;1999.90;999.90;;;;;;;12.51;100.00;94042.91;5066140;28;20264;-57
2023/05/20 05:25:57;;;;;;;1999.90;999.90;;;;;;;12.63;100.00;94026.41;5065148;28;20190;-59
2023/05/20 05:28:23;;;;;;;1999.90;999.90;;;;;;;12.73;100.00;94032.69;5065120;28;20215;-59
2023/05/20 05:30:48;;;;;;;1999.90;999.90;;;;;;;12.67;100.00;94048.16;5048714;28;20233;-59
2023/05/20 05:33:14;;;;;;;1999.90;999.90;;;;;;;12.81;100.00;94058.59;5048959;28;20204;-59
2023/05/20 05:35:41;;;;;;;1999.90;999.90;;;;;;;12.89;100.00;94063.34;5065309;28;20205;-59
2023/05/20 05:38:07;;;;;;;1999.90;999.90;;;;;;;12.89;100.00;94081.75;5065063;28;20213;-59
2023/05/20 05:40:32;;;;;;;1999.90;999.90;;;;;;;12.99;100.00;94113.50;5065457;28;20201;-59
2023/05/20 05:42:57;;;;;;;1999.90;999.90;;;;;;;12.82;100.00;94143.06;5065040;28;20201;-60
2023/05/20 05:45:23;;;;;;;1999.90;999.90;;;;;;;13.18;100.00;94154.25;5065015;28;20276;-58
2023/05/20 05:47:48;;;;;;;1999.90;999.90;;;;;;;13.14;100.00;94218.66;5064670;28;20193;-58
2023/05/20 05:50:13;;;;;;;1999.90;999.90;;;;;;;13.14;100.00;94273.47;5064978;28;20198;-59
2023/05/20 05:52:39;;;;;;;1999.90;999.90;;;;;;;13.35;100.00;94344.00;5065016;28;20201;-61
2023/05/20 05:55:04;;;;;;;1999.90;999.90;;;;;;;13.32;100.00;94399.72;5064832;28;20232;-61
2023/05/20 05:57:30;;;;;;;1999.90;999.90;;;;;;;13.20;100.00;94441.66;5065023;28;20220;-62
2023/05/20 05:59:55;;;;;;;1999.90;999.90;;;;;;;13.23;100.00;94473.69;5064908;28;20255;-62
2023/05/20 06:02:21;;;;;;;1999.90;999.90;;;;;;;13.31;100.00;94496.91;5064800;28;20205;-62
2023/05/20 06:04:46;;;;;;;1999.90;999.90;;;;;;;13.38;100.00;94522.13;5064641;28;20265;-59
2023/05/20 06:07:12;;;;;;;1999.90;999.90;;;;;;;13.37;100.00;94550.00;5047866;28;20268;-59
2023/05/20 06:09:38;;;;;;;1999.90;999.90;;;;;;;13.38;100.00;94568.00;5064719;28;20194;-59
2023/05/20 06:12:03;;;;;;;1999.90;999.90;;;;;;;13.49;100.00;94575.88;5064366;28;20209;-59
2023/05/20 06:14:29;;;;;;;1999.90;999.90;;;;;;;13.37;100.00;94604.84;5064214;28;20193;-61
2023/05/20 06:16:54;;;;;;;1999.90;999.90;;;;;;;13.38;100.00;94611.88;5047472;28;20232;-58
2023/05/20 06:19:19;;;;;;;1999.90;999.90;;;;;;;13.50;100.00;94616.56;5047520;28;20229;-59
2023/05/20 06:21:45;;;;;;;1999.90;999.90;;;;;;;13.55;100.00;94626.97;5047826;28;20201;-59
2023/05/20 06:24:10;;;;;;;1999.90;999.90;;;;;;;13.70;100.00;94639.06;5064443;28;20190;-60
2023/05/20 06:26:35;;;;;;;1999.90;999.90;;;;;;;13.76;100.00;94659.22;5064400;28;20286;-62
2023/05/20 06:29:02;;;;;;;1999.90;999.90;;;;;;;13.65;100.00;94691.72;5064159;28;20193;-59
2023/05/20 06:31:28;;;;;;;1999.90;999.90;;;;;;;13.92;100.00;94703.03;5064428;28;20181;-62
2023/05/20 06:33:54;;;;;;;1999.90;999.90;;;;;;;14.34;100.00;94748.34;5064345;28;20201;-60
2023/05/20 06:36:20;;;;;;;1999.90;999.90;;;;;;;14.92;100.00;94826.47;5064409;28;20198;-59
2023/05/20 06:38:45;;;;;;;1999.90;999.90;;;;;;;14.59;100.00;94907.69;5047303;28;20213;-59
2023/05/20 06:41:10;;;;;;;1999.90;999.90;;;;;;;14.57;100.00;94953.31;5063772;28;20243;-58
2023/05/20 06:43:36;;;;;;;1999.90;999.90;;;;;;;14.57;100.00;94975.28;5064126;28;20197;-59
2023/05/20 06:46:01;;;;;;;1999.90;999.90;;;;;;;14.75;100.00;95003.00;5047084;28;20200;-59
2023/05/20 06:48:27;;;;;;;1999.90;999.90;;;;;;;14.69;100.00;95030.28;5047688;28;20197;-59
2023/05/20 06:50:52;;;;;;;1999.90;999.90;;;;;;;14.36;100.00;95030.84;5063843;28;20190;-60
2023/05/20 06:53:17;;;;;;;1999.90;999.90;;;;;;;14.35;100.00;95002.59;5063944;28;20284;-60
2023/05/20 06:55:43;;;;;;;1999.90;999.90;;;;;;;14.28;100.00;94975.34;5063751;28;20193;-60
2023/05/20 06:58:08;;;;;;;1999.90;999.90;;;;;;;14.35;100.00;94947.66;5047134;28;20210;-59
2023/05/20 07:00:33;;;;;;;1999.90;999.90;;;;;;;14.66;100.00;94939.66;5063441;28;20239;-59
2023/05/20 07:02:59;;;;;;;1999.90;999.90;;;;;;;14.68;100.00;94954.50;5064035;28;20368;-58
2023/05/20 07:05:26;;;;;;;1999.90;999.90;;;;;;;14.69;100.00;94961.56;5064070;28;20193;-58
2023/05/20 07:07:51;;;;;;;1999.90;999.90;;;;;;;15.03;100.00;94986.38;5046768;28;20194;-59
2023/05/20 07:10:17;;;;;;;1999.90;999.90;;;;;;;16.39;100.00;95033.22;5046986;28;20200;-58
2023/05/20 07:12:42;;;;;;;1999.90;999.90;;;;;;;16.08;100.00;95087.50;5063442;28;20198;-58
2023/05/20 07:15:08;;;;;;;1999.90;999.90;;;;;;;15.90;100.00;95101.09;5046721;28;20204;-59
2023/05/20 07:17:33;;;;;;;1999.90;999.90;;;;;;;15.69;100.00;95104.56;5046755;28;20189;-58
2023/05/20 07:19:59;;;;;;;1999.90;999.90;;;;;;;15.14;100.00;95101.56;5063312;28;20225;-59
2023/05/20 07:22:24;;;;;;;1999.90;999.90;;;;;;;14.56;100.00;95076.19;5063399;28;20189;-59
2023/05/20 07:24:50;;;;;;;1999.90;999.90;;;;;;;14.65;100.00;95053.56;5063401;28;20252;-59
2023/05/20 07:27:15;;;;;;;1999.90;999.90;;;;;;;14.68;100.00;95025.97;5063616;28;20193;-59
2023/05/20 07:29:40;;;;;;;1999.90;999.90;;;;;;;14.91;100.00;95022.91;5063294;28;20194;-60
2023/05/20 07:32:07;;;;;;;1999.90;999.90;;;;;;;14.44;100.00;95015.69;5063327;28;20198;-60
2023/05/20 07:34:33;;;;;;;1999.90;999.90;;;;;;;14.62;100.00;95010.47;5063923;28;20206;-60
2023/05/20 07:36:58;;;;;;;1999.90;999.90;;;;;;;15.04;100.00;94998.91;5048906;28;20196;-59
2023/05/20 07:39:24;;;;;;;1999.90;999.90;;;;;;;15.28;100.00;95027.63;5067427;28;20209;-58
2023/05/20 07:41:49;;;;;;;1999.90;999.90;;;;;;;16.71;100.00;95078.22;5067274;28;20202;-58
2023/05/20 07:44:17;;;;;;;1999.90;999.90;;;;;;;16.98;100.00;95120.53;5050556;28;20228;-58
2023/05/20 07:46:43;;;;;;;1999.90;999.90;;;;;;;17.36;100.00;95139.56;5067813;28;20222;-59
2023/05/20 07:49:09;;;;;;;1999.90;999.90;;;;;;;17.31;100.00;95153.97;5067021;28;20338;-58
2023/05/20 07:51:34;;;;;;;1999.90;999.90;;;;;;;17.70;100.00;95156.03;5050476;28;20194;-58
2023/05/20 07:54:00;;;;;;;1999.90;999.90;;;;;;;17.41;100.00;95166.59;5066658;28;20193;-58
2023/05/20 07:56:25;;;;;;;1999.90;999.90;;;;;;;18.38;100.00;95170.22;5067154;28;20198;-58
2023/05/20 07:58:57;;;;;;;1999.90;999.90;;;;;;;19.20;100.00;95179.28;5050906;28;20220;-58
2023/05/20 08:01:22;;;;;;;1999.90;999.90;;;;;;;20.51;100.00;95180.97;5066989;28;20201;-59
2023/05/20 08:03:48;;;;;;;1999.90;999.90;;;;;;;19.66;100.00;95189.03;5050270;28;20213;-60
2023/05/20 08:06:13;;;;;;;1999.90;999.90;;;;;;;20.35;100.00;95189.69;5050626;28;20264;-59
2023/05/20 08:08:40;;;;;;;1999.90;999.90;;;;;;;20.98;100.00;95186.47;5066499;28;20212;-59
2023/05/20 08:11:06;;;;;;;1999.90;999.90;;;;;;;20.50;100.00;95193.28;5066481;28;20200;-59
2023/05/20 08:13:31;;;;;;;1999.90;999.90;;;;;;;21.18;100.00;95183.84;5066693;28;20201;-58
2023/05/20 08:15:57;;;;;;;1999.90;999.90;;;;;;;20.23;100.00;95187.91;5049918;28;20205;-60
2023/05/20 08:18:22;;;;;;;1999.90;999.90;;;;;;;20.13;100.00;95188.41;5049553;28;20222;-59
2023/05/20 08:20:48;;;;;;;1999.90;999.90;;;;;;;20.01;100.00;95176.28;5050362;28;20198;-53
2023/05/20 08:23:13;;;;;;;1999.90;999.90;;;;;;;20.43;100.00;95173.47;5066374;28;20194;-54
2023/05/20 08:25:38;;;;;;;1999.90;999.90;;;;;;;21.25;100.00;95177.94;5050033;28;20253;-57
2023/05/20 08:28:05;;;;;;;1999.90;999.90;;;;;;;21.05;100.00;95180.56;5066771;28;20273;-58
2023/05/20 08:30:32;;;;;;;1999.90;999.90;;;;;;;21.06;100.00;95193.22;5066422;28;20268;-56
2023/05/20 08:32:58;;;;;;;1999.90;999.90;;;;;;;22.16;100.00;95186.81;5066690;28;20182;-57
2023/05/20 08:35:24;;;;;;;1999.90;999.90;;;;;;;23.13;100.00;95177.97;5066021;28;20205;-55
2023/05/20 08:37:50;;;;;;;1999.90;999.90;;;;;;;23.77;100.00;95173.56;5066029;28;20220;-53
2023/05/20 08:40:15;;;;;;;1999.90;999.90;;;;;;;23.44;100.00;95169.69;5049511;28;20200;-55
2023/05/20 08:42:42;;;;;;;1999.90;999.90;;;;;;;23.24;100.00;95169.75;5049519;28;20193;-52
2023/05/20 08:45:11;;;;;;;1999.90;999.90;;;;;;;22.36;100.00;95172.94;5066228;28;20198;-57
2023/05/20 08:47:41;;;;;;;1999.90;999.90;;;;;;;22.44;100.00;95176.81;5065655;28;20193;-53
2023/05/20 08:50:09;;;;;;;1999.90;999.90;;;;;;;22.67;100.00;95169.56;5065687;28;20220;-57
2023/05/20 08:52:37;;;;;;;1999.90;999.90;;;;;;;22.32;100.00;95169.59;5065844;28;20210;-56
2023/05/20 08:55:06;;;;;;;1999.90;999.90;;;;;;;21.98;100.00;95177.91;5065745;28;20200;-59
2023/05/20 08:57:32;;;;;;;1999.90;999.90;;;;;;;21.62;100.00;95178.31;5065919;28;20204;-59
2023/05/20 08:59:58;;;;;;;1999.90;999.90;;;;;;;21.86;100.00;95176.97;5065756;28;20217;-58
2023/05/20 09:02:24;;;;;;;1999.90;999.90;;;;;;;21.39;100.00;95174.38;5048842;28;20201;-59
2023/05/20 09:04:50;;;;;;;1999.90;999.90;;;;;;;21.85;100.00;95175.44;5049232;28;20197;-60
2023/05/20 09:07:26;;;;;;;1999.90;999.90;;;;;;;21.50;100.00;95171.81;5049068;28;20224;-60
2023/05/20 09:09:51;;;;;;;1999.90;999.90;;;;;;;21.90;100.00;95188.69;5065896;28;20192;-60
2023/05/20 09:12:16;;;;;;;1999.90;999.90;;;;;;;21.80;100.00;95178.91;5065386;28;20193;-60
2023/05/20 09:14:42;;;;;;;1999.90;999.90;;;;;;;22.01;100.00;95172.16;5065395;28;20229;-58
2023/05/20 09:17:09;;;;;;;1999.90;999.90;;;;;;;22.24;100.00;95176.81;5065395;28;20202;-73
2023/05/20 09:19:35;;;;;;;1999.90;999.90;;;;;;;22.23;100.00;95177.28;5065549;28;20213;-61
2023/05/20 09:22:02;;;;;;;1999.90;999.90;;;;;;;21.47;100.00;95171.97;5065407;28;20197;-59
2023/05/20 09:24:28;;;;;;;1999.90;999.90;;;;;;;21.61;100.00;95174.78;5049006;28;20193;-60
2023/05/20 09:26:53;;;;;;;1999.90;999.90;;;;;;;21.58;100.00;95172.94;5065148;28;20255;-59
2023/05/20 09:29:20;;;;;;;1999.90;999.90;;;;;;;23.45;100.00;95160.84;5065444;28;20192;-59
2023/05/20 09:31:46;;;;;;;1999.90;999.90;;;;;;;23.48;100.00;95167.47;5065530;28;20198;-61
2023/05/20 09:34:11;;;;;;;1999.90;999.90;;;;;;;22.37;100.00;95174.44;5048407;28;20198;-60
2023/05/20 09:36:39;;;;;;;1999.90;999.90;;;;;;;21.92;100.00;95168.72;5048333;28;20291;-60
2023/05/20 09:39:08;;;;;;;1999.90;999.90;;;;;;;22.19;100.00;95180.25;5064836;28;20197;-60
2023/05/20 09:42:05;;;;;;;1999.90;999.90;;;;;;;22.19;100.00;95169.13;5048245;28;20198;-60
2023/05/20 09:44:33;;;;;;;1999.90;999.90;;;;;;;22.26;100.00;95171.50;5048102;28;20197;-60
2023/05/20 09:46:59;;;;;;;1999.90;999.90;;;;;;;21.24;100.00;95168.03;5064810;28;20198;-61
2023/05/20 09:49:27;;;;;;;1999.90;999.90;;;;;;;21.18;100.00;95167.19;5064724;28;20234;-59
2023/05/20 09:51:53;;;;;;;1999.90;999.90;;;;;;;21.12;100.00;95163.53;5065219;28;20208;-60
2023/05/20 09:54:20;;;;;;;1999.90;999.90;;;;;;;21.93;100.00;95143.19;5064947;28;20198;-60
2023/05/20 09:56:46;;;;;;;1999.90;999.90;;;;;;;21.78;100.00;95148.03;5048002;28;20209;-60
2023/05/20 09:59:16;;;;;;;1999.90;999.90;;;;;;;21.09;100.00;95153.38;5064025;28;20285;-60
2023/05/20 10:01:41;;;;;;;1999.90;999.90;;;;;;;21.26;100.00;95148.88;5064717;28;20198;-60
2023/05/20 10:04:08;;;;;;;1999.90;999.90;;;;;;;21.18;100.00;95146.97;5047764;28;20280;-60
2023/05/20 10:07:05;;;;;;;1999.90;999.90;;;;;;;21.23;100.00;95146.31;5064621;28;20201;-60
2023/05/20 10:10:04;;;;;;;1999.90;999.90;;;;;;;21.22;100.00;95148.31;5047743;28;20251;-60
2023/05/20 10:12:42;;;;;;;1999.90;999.90;;;;;;;21.14;100.00;95155.50;5047928;28;20197;-59
2023/05/20 10:15:30;;;;;;;1999.90;999.90;;;;;;;21.82;100.00;95139.50;5064542;28;20206;-59
2023/05/20 10:18:12;;;;;;;1999.90;999.90;;;;;;;22.48;100.00;95132.88;5047619;28;20201;-60
2023/05/20 10:20:48;;;;;;;1999.90;999.90;;;;;;;23.83;100.00;95131.78;5047661;28;20201;-60
2023/05/20 10:23:26;;;;;;;1999.90;999.90;;;;;;;24.93;100.00;95126.84;5047878;28;20177;-59
2023/05/20 10:25:53;;;;;;;1999.90;999.90;;;;;;;24.44;100.00;95125.34;5064535;28;20208;-60
2023/05/20 10:28:34;;;;;;;1999.90;999.90;;;;;;;23.50;100.00;95126.69;5064398;28;20209;-60
2023/05/20 10:31:00;;;;;;;1999.90;999.90;;;;;;;24.11;100.00;95129.97;5063872;28;20224;-61
2023/05/20 10:33:29;;;;;;;1999.90;999.90;;;;;;;24.51;100.00;95126.91;5064142;28;20194;-60
2023/05/20 10:35:59;;;;;;;1999.90;999.90;;;;;;;24.54;100.00;95117.50;5063803;28;20198;-59
2023/05/20 10:38:25;;;;;;;1999.90;999.90;;;;;;;24.74;100.00;95120.19;5064042;28;20213;-62
2023/05/20 10:40:51;;;;;;;1999.90;999.90;;;;;;;24.93;100.00;95104.50;5047231;28;20193;-60
2023/05/20 10:43:27;;;;;;;1999.90;999.90;;;;;;;25.81;100.00;95099.03;5047600;28;20201;-60
2023/05/20 10:45:54;;;;;;;1999.90;999.90;;;;;;;25.74;100.00;95105.16;5064308;28;20216;-60